Terminal Aerodrome Forecast
Issued by NWS Albany, NY

Home | Current Version | Previous Version | Text Only | Print | Product List | Glossary On
Versions: 1 2 3 4 5 6 7 8 9 10 11 12 13 14 15 16 17 18 19 20 21 22 23 24 25 26 27 28
000
FTUS41 KALY 020534
TAFGFL
TAF
KGFL 020534Z 0206/0306 00000KT P6SM VCSH SCT008 OVC020
      TEMPO 0208/0212 3SM -RA BR BKN008
     FM021200 02004KT 6SM BR VCSH BKN008 OVC015
     FM021600 03005KT P6SM OVC015
     FM021900 04006KT P6SM OVC025
     FM022200 03005KT P6SM OVC035
     FM030100 VRB03KT P6SM BKN050=

USA.gov is the U.S. government's official web portal to all federal, state and local government web resources and services.